sensor_id;sensor_type;location;lat;lon;timestamp;temperature;humidity
70801;DHT22;59616;52.170;5.386;2022-07-29T00:00:57;17.60;60.70
70801;DHT22;59616;52.170;5.386;2022-07-29T00:03:24;17.50;60.70
70801;DHT22;59616;52.170;5.386;2022-07-29T00:05:52;17.50;60.80
70801;DHT22;59616;52.170;5.386;2022-07-29T00:08:19;17.50;60.90
70801;DHT22;59616;52.170;5.386;2022-07-29T00:10:46;17.50;61.00
70801;DHT22;59616;52.170;5.386;2022-07-29T00:13:13;17.40;61.10
70801;DHT22;59616;52.170;5.386;2022-07-29T00:15:40;17.40;61.30
70801;DHT22;59616;52.170;5.386;2022-07-29T00:18:07;17.30;61.30
70801;DHT22;59616;52.170;5.386;2022-07-29T00:20:34;17.30;61.40
70801;DHT22;59616;52.170;5.386;2022-07-29T00:23:00;17.30;61.50
70801;DHT22;59616;52.170;5.386;2022-07-29T00:25:27;17.30;61.60
70801;DHT22;59616;52.170;5.386;2022-07-29T00:27:54;17.20;61.60
70801;DHT22;59616;52.170;5.386;2022-07-29T00:30:20;17.20;61.80
70801;DHT22;59616;52.170;5.386;2022-07-29T00:32:47;17.20;61.80
70801;DHT22;59616;52.170;5.386;2022-07-29T00:35:14;17.10;61.80
70801;DHT22;59616;52.170;5.386;2022-07-29T00:37:59;17.10;61.90
70801;DHT22;59616;52.170;5.386;2022-07-29T00:40:27;17.10;62.00
70801;DHT22;59616;52.170;5.386;2022-07-29T00:42:54;17.10;62.10
70801;DHT22;59616;52.170;5.386;2022-07-29T00:45:21;17.00;62.20
70801;DHT22;59616;52.170;5.386;2022-07-29T00:47:50;17.00;62.30
70801;DHT22;59616;52.170;5.386;2022-07-29T00:50:18;17.00;63.30
70801;DHT22;59616;52.170;5.386;2022-07-29T00:52:45;17.00;62.60
70801;DHT22;59616;52.170;5.386;2022-07-29T00:55:14;17.00;62.60
70801;DHT22;59616;52.170;5.386;2022-07-29T00:57:43;17.00;62.60
70801;DHT22;59616;52.170;5.386;2022-07-29T01:00:17;17.00;62.70
70801;DHT22;59616;52.170;5.386;2022-07-29T01:02:45;16.90;62.70
70801;DHT22;59616;52.170;5.386;2022-07-29T01:05:20;16.90;62.80
70801;DHT22;59616;52.170;5.386;2022-07-29T01:07:51;16.90;62.80
70801;DHT22;59616;52.170;5.386;2022-07-29T01:10:19;16.90;62.80
70801;DHT22;59616;52.170;5.386;2022-07-29T01:12:49;16.90;63.00
70801;DHT22;59616;52.170;5.386;2022-07-29T01:15:17;16.90;63.10
70801;DHT22;59616;52.170;5.386;2022-07-29T01:18:07;16.90;63.00
70801;DHT22;59616;52.170;5.386;2022-07-29T01:26:41;16.80;63.10
70801;DHT22;59616;52.170;5.386;2022-07-29T01:29:24;16.80;63.20
70801;DHT22;59616;52.170;5.386;2022-07-29T01:32:11;16.70;63.20
70801;DHT22;59616;52.170;5.386;2022-07-29T01:35:16;16.70;63.20
70801;DHT22;59616;52.170;5.386;2022-07-29T01:40:45;16.60;63.30
70801;DHT22;59616;52.170;5.386;2022-07-29T01:43:20;16.60;63.50
70801;DHT22;59616;52.170;5.386;2022-07-29T01:46:00;16.50;63.50
70801;DHT22;59616;52.170;5.386;2022-07-29T01:51:20;16.50;63.60
70801;DHT22;59616;52.170;5.386;2022-07-29T01:53:51;16.50;63.70
70801;DHT22;59616;52.170;5.386;2022-07-29T01:56:21;16.50;63.90
70801;DHT22;59616;52.170;5.386;2022-07-29T01:58:50;16.50;63.90
70801;DHT22;59616;52.170;5.386;2022-07-29T02:01:18;16.50;63.90
70801;DHT22;59616;52.170;5.386;2022-07-29T02:03:46;16.50;63.90
70801;DHT22;59616;52.170;5.386;2022-07-29T02:06:18;16.50;63.90
70801;DHT22;59616;52.170;5.386;2022-07-29T02:08:46;16.50;63.90
70801;DHT22;59616;52.170;5.386;2022-07-29T02:11:14;16.50;63.90
70801;DHT22;59616;52.170;5.386;2022-07-29T02:13:41;16.50;63.90
70801;DHT22;59616;52.170;5.386;2022-07-29T02:16:09;16.50;63.90
70801;DHT22;59616;52.170;5.386;2022-07-29T02:18:39;16.50;63.90
70801;DHT22;59616;52.170;5.386;2022-07-29T02:21:07;16.50;63.90
70801;DHT22;59616;52.170;5.386;2022-07-29T02:23:42;16.50;64.00
70801;DHT22;59616;52.170;5.386;2022-07-29T02:26:18;16.50;63.90
70801;DHT22;59616;52.170;5.386;2022-07-29T02:28:46;16.50;63.90
70801;DHT22;59616;52.170;5.386;2022-07-29T02:31:13;16.50;63.80
70801;DHT22;59616;52.170;5.386;2022-07-29T02:33:42;16.50;63.90
70801;DHT22;59616;52.170;5.386;2022-07-29T02:36:09;16.50;63.80
70801;DHT22;59616;52.170;5.386;2022-07-29T02:38:37;16.50;63.80
70801;DHT22;59616;52.170;5.386;2022-07-29T02:41:27;16.50;63.80
70801;DHT22;59616;52.170;5.386;2022-07-29T02:44:02;16.50;63.80
70801;DHT22;59616;52.170;5.386;2022-07-29T02:46:33;16.50;63.80
70801;DHT22;59616;52.170;5.386;2022-07-29T02:49:16;16.50;63.90
70801;DHT22;59616;52.170;5.386;2022-07-29T02:51:50;16.50;63.90
70801;DHT22;59616;52.170;5.386;2022-07-29T02:54:26;16.50;63.90
70801;DHT22;59616;52.170;5.386;2022-07-29T02:57:03;16.50;63.80
70801;DHT22;59616;52.170;5.386;2022-07-29T02:59:34;16.50;63.80
70801;DHT22;59616;52.170;5.386;2022-07-29T03:02:02;16.50;63.80
70801;DHT22;59616;52.170;5.386;2022-07-29T03:04:32;16.50;63.90
70801;DHT22;59616;52.170;5.386;2022-07-29T03:07:01;16.50;63.90
70801;DHT22;59616;52.170;5.386;2022-07-29T03:09:29;16.50;63.90
70801;DHT22;59616;52.170;5.386;2022-07-29T03:11:57;16.50;63.90
70801;DHT22;59616;52.170;5.386;2022-07-29T03:14:24;16.50;63.90
70801;DHT22;59616;52.170;5.386;2022-07-29T03:16:52;16.50;64.00
70801;DHT22;59616;52.170;5.386;2022-07-29T03:19:19;16.50;64.10
70801;DHT22;59616;52.170;5.386;2022-07-29T03:21:47;16.50;64.10
70801;DHT22;59616;52.170;5.386;2022-07-29T03:24:34;16.40;64.00
70801;DHT22;59616;52.170;5.386;2022-07-29T03:27:02;16.50;65.00
70801;DHT22;59616;52.170;5.386;2022-07-29T03:29:29;16.50;64.00
70801;DHT22;59616;52.170;5.386;2022-07-29T03:32:01;16.50;64.10
70801;DHT22;59616;52.170;5.386;2022-07-29T03:34:29;16.50;64.00
70801;DHT22;59616;52.170;5.386;2022-07-29T03:36:56;16.50;64.00
70801;DHT22;59616;52.170;5.386;2022-07-29T03:39:25;16.50;63.90
70801;DHT22;59616;52.170;5.386;2022-07-29T03:41:55;16.50;64.00
70801;DHT22;59616;52.170;5.386;2022-07-29T03:44:23;16.50;64.00
70801;DHT22;59616;52.170;5.386;2022-07-29T03:46:52;16.50;64.00
70801;DHT22;59616;52.170;5.386;2022-07-29T03:49:21;16.50;64.80
70801;DHT22;59616;52.170;5.386;2022-07-29T03:51:49;16.50;64.00
70801;DHT22;59616;52.170;5.386;2022-07-29T03:54:16;16.50;64.10
70801;DHT22;59616;52.170;5.386;2022-07-29T03:56:45;16.50;64.10
70801;DHT22;59616;52.170;5.386;2022-07-29T03:59:15;16.50;64.20
70801;DHT22;59616;52.170;5.386;2022-07-29T04:01:43;16.50;64.20
70801;DHT22;59616;52.170;5.386;2022-07-29T04:04:10;16.50;64.10
70801;DHT22;59616;52.170;5.386;2022-07-29T04:06:39;16.60;64.30
70801;DHT22;59616;52.170;5.386;2022-07-29T04:09:06;16.50;64.10
70801;DHT22;59616;52.170;5.386;2022-07-29T04:11:36;16.60;64.10
70801;DHT22;59616;52.170;5.386;2022-07-29T04:14:24;16.50;64.00
70801;DHT22;59616;52.170;5.386;2022-07-29T04:16:51;16.50;64.00
70801;DHT22;59616;52.170;5.386;2022-07-29T04:19:19;16.60;64.00
70801;DHT22;59616;52.170;5.386;2022-07-29T04:21:46;16.60;64.00
70801;DHT22;59616;52.170;5.386;2022-07-29T04:24:12;16.60;63.90
70801;DHT22;59616;52.170;5.386;2022-07-29T04:26:40;16.60;64.00
70801;DHT22;59616;52.170;5.386;2022-07-29T04:29:07;16.60;63.90
70801;DHT22;59616;52.170;5.386;2022-07-29T04:31:33;16.60;63.90
70801;DHT22;59616;52.170;5.386;2022-07-29T04:34:00;16.60;63.90
70801;DHT22;59616;52.170;5.386;2022-07-29T04:36:27;16.60;64.00
70801;DHT22;59616;52.170;5.386;2022-07-29T04:38:55;16.60;64.10
70801;DHT22;59616;52.170;5.386;2022-07-29T04:41:22;16.60;64.10
70801;DHT22;59616;52.170;5.386;2022-07-29T04:43:58;16.50;64.00
70801;DHT22;59616;52.170;5.386;2022-07-29T04:46:27;16.60;64.10
70801;DHT22;59616;52.170;5.386;2022-07-29T04:48:54;16.60;63.90
70801;DHT22;59616;52.170;5.386;2022-07-29T04:51:21;16.60;63.90
70801;DHT22;59616;52.170;5.386;2022-07-29T04:53:47;16.60;63.90
70801;DHT22;59616;52.170;5.386;2022-07-29T04:56:14;16.70;63.80
70801;DHT22;59616;52.170;5.386;2022-07-29T04:58:41;16.60;63.80
70801;DHT22;59616;52.170;5.386;2022-07-29T05:01:07;16.60;63.90
70801;DHT22;59616;52.170;5.386;2022-07-29T05:03:34;16.60;64.00
70801;DHT22;59616;52.170;5.386;2022-07-29T05:06:01;16.60;64.00
70801;DHT22;59616;52.170;5.386;2022-07-29T05:08:28;16.60;64.00
70801;DHT22;59616;52.170;5.386;2022-07-29T05:10:54;16.70;63.90
70801;DHT22;59616;52.170;5.386;2022-07-29T05:13:21;16.70;63.90
70801;DHT22;59616;52.170;5.386;2022-07-29T05:15:48;16.60;63.80
70801;DHT22;59616;52.170;5.386;2022-07-29T05:18:15;16.70;63.90
70801;DHT22;59616;52.170;5.386;2022-07-29T05:20:41;16.60;63.80
70801;DHT22;59616;52.170;5.386;2022-07-29T05:23:08;16.70;64.00
70801;DHT22;59616;52.170;5.386;2022-07-29T05:25:35;16.70;63.80
70801;DHT22;59616;52.170;5.386;2022-07-29T05:28:11;16.70;64.60
70801;DHT22;59616;52.170;5.386;2022-07-29T05:30:38;16.80;63.80
70801;DHT22;59616;52.170;5.386;2022-07-29T05:33:04;16.80;63.80
70801;DHT22;59616;52.170;5.386;2022-07-29T05:35:32;16.90;63.60
70801;DHT22;59616;52.170;5.386;2022-07-29T05:38:01;17.00;63.50
70801;DHT22;59616;52.170;5.386;2022-07-29T05:40:28;17.10;63.40
70801;DHT22;59616;52.170;5.386;2022-07-29T05:42:55;17.10;63.20
70801;DHT22;59616;52.170;5.386;2022-07-29T05:45:22;17.20;63.30
70801;DHT22;59616;52.170;5.386;2022-07-29T05:47:49;17.20;63.20
70801;DHT22;59616;52.170;5.386;2022-07-29T05:50:16;17.30;63.10
70801;DHT22;59616;52.170;5.386;2022-07-29T05:52:43;17.30;62.90
70801;DHT22;59616;52.170;5.386;2022-07-29T05:55:10;17.40;63.00
70801;DHT22;59616;52.170;5.386;2022-07-29T05:57:37;17.50;62.80
70801;DHT22;59616;52.170;5.386;2022-07-29T06:00:04;17.60;62.60
70801;DHT22;59616;52.170;5.386;2022-07-29T06:02:37;17.60;62.40
70801;DHT22;59616;52.170;5.386;2022-07-29T06:05:04;17.60;62.50
70801;DHT22;59616;52.170;5.386;2022-07-29T06:07:36;17.60;62.40
70801;DHT22;59616;52.170;5.386;2022-07-29T06:10:04;17.80;62.40
70801;DHT22;59616;52.170;5.386;2022-07-29T06:12:31;17.70;62.60
70801;DHT22;59616;52.170;5.386;2022-07-29T06:14:58;17.80;62.10
70801;DHT22;59616;52.170;5.386;2022-07-29T06:17:25;17.80;62.10
70801;DHT22;59616;52.170;5.386;2022-07-29T06:19:51;17.80;62.10
70801;DHT22;59616;52.170;5.386;2022-07-29T06:22:18;17.80;61.90
70801;DHT22;59616;52.170;5.386;2022-07-29T06:24:45;17.80;62.10
70801;DHT22;59616;52.170;5.386;2022-07-29T06:27:12;17.70;62.00
70801;DHT22;59616;52.170;5.386;2022-07-29T06:29:38;17.70;62.00
70801;DHT22;59616;52.170;5.386;2022-07-29T06:32:05;17.70;62.20
70801;DHT22;59616;52.170;5.386;2022-07-29T06:34:32;17.60;62.40
70801;DHT22;59616;52.170;5.386;2022-07-29T06:36:59;17.60;62.60
70801;DHT22;59616;52.170;5.386;2022-07-29T06:39:26;17.50;62.70
70801;DHT22;59616;52.170;5.386;2022-07-29T06:41:52;17.50;62.90
70801;DHT22;59616;52.170;5.386;2022-07-29T06:44:23;17.40;63.10
70801;DHT22;59616;52.170;5.386;2022-07-29T06:46:51;17.40;63.20
70801;DHT22;59616;52.170;5.386;2022-07-29T06:49:18;17.40;63.20
70801;DHT22;59616;52.170;5.386;2022-07-29T06:51:45;17.30;63.30
70801;DHT22;59616;52.170;5.386;2022-07-29T06:54:11;17.30;63.50
70801;DHT22;59616;52.170;5.386;2022-07-29T06:56:38;17.40;63.60
70801;DHT22;59616;52.170;5.386;2022-07-29T06:59:09;17.40;63.50
70801;DHT22;59616;52.170;5.386;2022-07-29T07:01:37;17.50;63.40
70801;DHT22;59616;52.170;5.386;2022-07-29T07:04:04;17.60;63.20
70801;DHT22;59616;52.170;5.386;2022-07-29T07:06:32;17.70;63.10
70801;DHT22;59616;52.170;5.386;2022-07-29T07:08:58;17.80;63.10
70801;DHT22;59616;52.170;5.386;2022-07-29T07:11:25;17.90;63.10
70801;DHT22;59616;52.170;5.386;2022-07-29T07:13:53;18.20;62.70
70801;DHT22;59616;52.170;5.386;2022-07-29T07:16:24;18.40;62.60
70801;DHT22;59616;52.170;5.386;2022-07-29T07:18:51;18.70;62.40
70801;DHT22;59616;52.170;5.386;2022-07-29T07:21:18;19.00;61.80
70801;DHT22;59616;52.170;5.386;2022-07-29T07:23:45;19.20;61.40
70801;DHT22;59616;52.170;5.386;2022-07-29T07:26:12;19.50;60.60
70801;DHT22;59616;52.170;5.386;2022-07-29T07:28:39;19.70;59.90
70801;DHT22;59616;52.170;5.386;2022-07-29T07:31:06;20.00;59.50
70801;DHT22;59616;52.170;5.386;2022-07-29T07:33:32;20.00;59.10
70801;DHT22;59616;52.170;5.386;2022-07-29T07:35:59;20.20;58.80
70801;DHT22;59616;52.170;5.386;2022-07-29T07:38:26;20.20;58.50
70801;DHT22;59616;52.170;5.386;2022-07-29T07:40:52;20.30;58.40
70801;DHT22;59616;52.170;5.386;2022-07-29T07:43:19;20.30;58.10
70801;DHT22;59616;52.170;5.386;2022-07-29T07:45:46;20.20;58.10
70801;DHT22;59616;52.170;5.386;2022-07-29T07:48:13;20.30;58.20
70801;DHT22;59616;52.170;5.386;2022-07-29T07:50:39;20.30;58.10
70801;DHT22;59616;52.170;5.386;2022-07-29T07:53:06;20.40;58.20
70801;DHT22;59616;52.170;5.386;2022-07-29T07:55:33;20.60;58.10
70801;DHT22;59616;52.170;5.386;2022-07-29T07:58:20;20.60;57.70
70801;DHT22;59616;52.170;5.386;2022-07-29T08:00:47;20.60;57.30
70801;DHT22;59616;52.170;5.386;2022-07-29T08:03:14;20.70;57.60
70801;DHT22;59616;52.170;5.386;2022-07-29T08:05:42;20.70;57.30
70801;DHT22;59616;52.170;5.386;2022-07-29T08:08:09;20.70;57.10
70801;DHT22;59616;52.170;5.386;2022-07-29T08:10:36;20.80;57.10
70801;DHT22;59616;52.170;5.386;2022-07-29T08:13:23;20.90;56.90
70801;DHT22;59616;52.170;5.386;2022-07-29T08:15:51;20.90;56.60
70801;DHT22;59616;52.170;5.386;2022-07-29T08:18:26;20.90;56.30
70801;DHT22;59616;52.170;5.386;2022-07-29T08:20:53;20.90;57.90
70801;DHT22;59616;52.170;5.386;2022-07-29T08:23:21;20.80;56.90
70801;DHT22;59616;52.170;5.386;2022-07-29T08:25:50;20.90;56.90
70801;DHT22;59616;52.170;5.386;2022-07-29T08:28:20;21.10;56.90
70801;DHT22;59616;52.170;5.386;2022-07-29T08:30:51;21.30;56.60
70801;DHT22;59616;52.170;5.386;2022-07-29T08:33:18;21.60;55.80
70801;DHT22;59616;52.170;5.386;2022-07-29T08:35:44;21.70;55.30
70801;DHT22;59616;52.170;5.386;2022-07-29T08:38:12;22.10;55.30
70801;DHT22;59616;52.170;5.386;2022-07-29T08:40:39;22.50;54.40
70801;DHT22;59616;52.170;5.386;2022-07-29T08:43:07;22.90;53.50
70801;DHT22;59616;52.170;5.386;2022-07-29T08:45:42;23.30;52.30
70801;DHT22;59616;52.170;5.386;2022-07-29T08:48:19;23.70;51.60
70801;DHT22;59616;52.170;5.386;2022-07-29T08:50:48;24.10;51.00
70801;DHT22;59616;52.170;5.386;2022-07-29T08:53:17;24.30;50.40
70801;DHT22;59616;52.170;5.386;2022-07-29T08:55:47;24.50;49.80
70801;DHT22;59616;52.170;5.386;2022-07-29T08:58:14;24.60;49.20
70801;DHT22;59616;52.170;5.386;2022-07-29T09:00:46;24.70;49.00
70801;DHT22;59616;52.170;5.386;2022-07-29T09:03:17;24.90;48.50
70801;DHT22;59616;52.170;5.386;2022-07-29T09:05:48;25.00;48.00
70801;DHT22;59616;52.170;5.386;2022-07-29T09:08:17;25.10;48.00
70801;DHT22;59616;52.170;5.386;2022-07-29T09:10:44;25.20;48.00
70801;DHT22;59616;52.170;5.386;2022-07-29T09:13:11;25.30;47.70
70801;DHT22;59616;52.170;5.386;2022-07-29T09:15:38;25.30;47.00
70801;DHT22;59616;52.170;5.386;2022-07-29T09:18:05;25.40;46.90
70801;DHT22;59616;52.170;5.386;2022-07-29T09:20:31;25.60;46.80
70801;DHT22;59616;52.170;5.386;2022-07-29T09:23:17;25.80;46.60
70801;DHT22;59616;52.170;5.386;2022-07-29T09:25:50;25.90;45.90
70801;DHT22;59616;52.170;5.386;2022-07-29T09:28:17;25.90;45.30
70801;DHT22;59616;52.170;5.386;2022-07-29T09:33:20;25.80;45.10
70801;DHT22;59616;52.170;5.386;2022-07-29T09:35:59;25.60;45.50
70801;DHT22;59616;52.170;5.386;2022-07-29T09:38:27;25.50;45.80
70801;DHT22;59616;52.170;5.386;2022-07-29T09:40:58;25.50;45.70
70801;DHT22;59616;52.170;5.386;2022-07-29T09:43:32;25.50;45.80
70801;DHT22;59616;52.170;5.386;2022-07-29T09:46:16;25.40;45.70
70801;DHT22;59616;52.170;5.386;2022-07-29T09:48:43;25.40;46.10
70801;DHT22;59616;52.170;5.386;2022-07-29T09:51:19;25.40;46.10
70801;DHT22;59616;52.170;5.386;2022-07-29T09:53:55;25.40;46.00
70801;DHT22;59616;52.170;5.386;2022-07-29T09:56:41;25.40;45.70
70801;DHT22;59616;52.170;5.386;2022-07-29T09:59:09;25.50;45.80
70801;DHT22;59616;52.170;5.386;2022-07-29T10:01:36;25.50;45.50
70801;DHT22;59616;52.170;5.386;2022-07-29T10:04:04;25.40;45.70
70801;DHT22;59616;52.170;5.386;2022-07-29T10:06:31;25.10;45.90
70801;DHT22;59616;52.170;5.386;2022-07-29T10:09:08;24.90;46.20
70801;DHT22;59616;52.170;5.386;2022-07-29T10:11:35;24.60;46.80
70801;DHT22;59616;52.170;5.386;2022-07-29T10:14:15;24.40;47.00
70801;DHT22;59616;52.170;5.386;2022-07-29T10:16:42;24.50;47.60
70801;DHT22;59616;52.170;5.386;2022-07-29T10:19:09;24.50;47.90
70801;DHT22;59616;52.170;5.386;2022-07-29T10:21:36;24.60;47.90
70801;DHT22;59616;52.170;5.386;2022-07-29T10:24:06;24.60;47.20
70801;DHT22;59616;52.170;5.386;2022-07-29T10:26:41;24.80;46.90
70801;DHT22;59616;52.170;5.386;2022-07-29T10:29:08;25.00;46.60
70801;DHT22;59616;52.170;5.386;2022-07-29T10:32:24;25.10;46.10
70801;DHT22;59616;52.170;5.386;2022-07-29T10:37:57;25.40;45.80
70801;DHT22;59616;52.170;5.386;2022-07-29T10:40:36;25.50;45.40
70801;DHT22;59616;52.170;5.386;2022-07-29T10:43:29;25.40;45.20
70801;DHT22;59616;52.170;5.386;2022-07-29T10:45:59;25.50;45.20
70801;DHT22;59616;52.170;5.386;2022-07-29T10:48:27;25.60;44.90
70801;DHT22;59616;52.170;5.386;2022-07-29T10:51:02;25.60;45.00
70801;DHT22;59616;52.170;5.386;2022-07-29T10:53:50;25.60;44.50
70801;DHT22;59616;52.170;5.386;2022-07-29T10:56:26;25.70;44.50
70801;DHT22;59616;52.170;5.386;2022-07-29T11:01:51;25.90;44.10
70801;DHT22;59616;52.170;5.386;2022-07-29T11:07:12;26.20;43.40
70801;DHT22;59616;52.170;5.386;2022-07-29T11:09:40;26.30;43.00
70801;DHT22;59616;52.170;5.386;2022-07-29T11:12:45;26.30;43.00
70801;DHT22;59616;52.170;5.386;2022-07-29T11:15:22;26.40;43.00
70801;DHT22;59616;52.170;5.386;2022-07-29T11:20:44;26.30;42.90
70801;DHT22;59616;52.170;5.386;2022-07-29T11:23:23;26.20;43.30
70801;DHT22;59616;52.170;5.386;2022-07-29T11:31:35;26.60;43.40
70801;DHT22;59616;52.170;5.386;2022-07-29T11:34:22;26.80;42.70
70801;DHT22;59616;52.170;5.386;2022-07-29T11:45:05;26.20;43.30
70801;DHT22;59616;52.170;5.386;2022-07-29T11:47:55;26.20;44.20
70801;DHT22;59616;52.170;5.386;2022-07-29T11:50:44;26.30;43.70
70801;DHT22;59616;52.170;5.386;2022-07-29T11:53:14;26.40;43.60
70801;DHT22;59616;52.170;5.386;2022-07-29T11:55:42;26.50;43.30
70801;DHT22;59616;52.170;5.386;2022-07-29T11:58:21;26.60;43.20
70801;DHT22;59616;52.170;5.386;2022-07-29T12:00:51;26.60;42.50
70801;DHT22;59616;52.170;5.386;2022-07-29T12:03:25;26.70;43.00
70801;DHT22;59616;52.170;5.386;2022-07-29T12:06:11;26.80;43.20
70801;DHT22;59616;52.170;5.386;2022-07-29T12:08:42;27.00;42.80
70801;DHT22;59616;52.170;5.386;2022-07-29T12:11:19;27.30;42.50
70801;DHT22;59616;52.170;5.386;2022-07-29T12:13:52;27.40;42.20
70801;DHT22;59616;52.170;5.386;2022-07-29T12:16:20;27.30;41.70
70801;DHT22;59616;52.170;5.386;2022-07-29T12:18:57;27.30;41.50
70801;DHT22;59616;52.170;5.386;2022-07-29T12:21:25;27.10;41.50
70801;DHT22;59616;52.170;5.386;2022-07-29T12:23:55;27.10;42.10
70801;DHT22;59616;52.170;5.386;2022-07-29T12:26:30;27.10;41.90
70801;DHT22;59616;52.170;5.386;2022-07-29T12:28:59;27.20;42.00
70801;DHT22;59616;52.170;5.386;2022-07-29T12:31:29;27.30;41.90
70801;DHT22;59616;52.170;5.386;2022-07-29T12:34:12;27.40;41.40
70801;DHT22;59616;52.170;5.386;2022-07-29T12:36:40;27.50;41.30
70801;DHT22;59616;52.170;5.386;2022-07-29T12:39:08;27.40;41.30
70801;DHT22;59616;52.170;5.386;2022-07-29T12:41:35;27.40;41.60
70801;DHT22;59616;52.170;5.386;2022-07-29T12:44:02;27.30;41.30
70801;DHT22;59616;52.170;5.386;2022-07-29T12:46:29;27.50;41.60
70801;DHT22;59616;52.170;5.386;2022-07-29T12:48:56;27.50;41.50
70801;DHT22;59616;52.170;5.386;2022-07-29T12:51:35;27.40;41.50
70801;DHT22;59616;52.170;5.386;2022-07-29T12:54:13;27.30;41.30
70801;DHT22;59616;52.170;5.386;2022-07-29T12:56:43;27.30;41.60
70801;DHT22;59616;52.170;5.386;2022-07-29T12:59:13;27.30;41.70
70801;DHT22;59616;52.170;5.386;2022-07-29T13:01:40;27.50;41.60
70801;DHT22;59616;52.170;5.386;2022-07-29T13:04:07;27.60;41.90
70801;DHT22;59616;52.170;5.386;2022-07-29T13:06:45;27.70;41.70
70801;DHT22;59616;52.170;5.386;2022-07-29T13:09:20;27.80;41.70
70801;DHT22;59616;52.170;5.386;2022-07-29T13:11:51;27.80;41.20
70801;DHT22;59616;52.170;5.386;2022-07-29T13:14:34;27.70;41.00
70801;DHT22;59616;52.170;5.386;2022-07-29T13:17:05;27.70;41.50
70801;DHT22;59616;52.170;5.386;2022-07-29T13:19:34;27.60;41.50
70801;DHT22;59616;52.170;5.386;2022-07-29T13:22:01;27.60;42.10
70801;DHT22;59616;52.170;5.386;2022-07-29T13:24:28;27.70;42.20
70801;DHT22;59616;52.170;5.386;2022-07-29T13:26:55;27.70;42.30
70801;DHT22;59616;52.170;5.386;2022-07-29T13:29:22;27.70;42.00
70801;DHT22;59616;52.170;5.386;2022-07-29T13:31:53;27.50;42.20
70801;DHT22;59616;52.170;5.386;2022-07-29T13:34:19;27.60;42.30
70801;DHT22;59616;52.170;5.386;2022-07-29T13:36:48;27.50;42.20
70801;DHT22;59616;52.170;5.386;2022-07-29T13:39:15;27.40;42.30
70801;DHT22;59616;52.170;5.386;2022-07-29T13:41:41;27.40;42.30
70801;DHT22;59616;52.170;5.386;2022-07-29T13:44:08;27.30;42.60
70801;DHT22;59616;52.170;5.386;2022-07-29T13:46:35;27.20;42.70
70801;DHT22;59616;52.170;5.386;2022-07-29T13:49:05;27.20;42.90
70801;DHT22;59616;52.170;5.386;2022-07-29T13:51:32;27.10;42.90
70801;DHT22;59616;52.170;5.386;2022-07-29T13:53:59;27.20;43.00
70801;DHT22;59616;52.170;5.386;2022-07-29T13:56:25;27.20;42.80
70801;DHT22;59616;52.170;5.386;2022-07-29T13:58:52;27.30;42.90
70801;DHT22;59616;52.170;5.386;2022-07-29T14:01:19;27.30;42.90
70801;DHT22;59616;52.170;5.386;2022-07-29T14:03:46;27.30;42.60
70801;DHT22;59616;52.170;5.386;2022-07-29T14:06:12;27.40;42.60
70801;DHT22;59616;52.170;5.386;2022-07-29T14:08:42;27.40;42.70
70801;DHT22;59616;52.170;5.386;2022-07-29T14:11:09;27.50;42.80
70801;DHT22;59616;52.170;5.386;2022-07-29T14:13:36;27.50;42.50
70801;DHT22;59616;52.170;5.386;2022-07-29T14:16:03;27.50;41.90
70801;DHT22;59616;52.170;5.386;2022-07-29T14:18:30;27.50;41.60
70801;DHT22;59616;52.170;5.386;2022-07-29T14:20:56;27.40;41.90
70801;DHT22;59616;52.170;5.386;2022-07-29T14:23:23;27.50;41.80
70801;DHT22;59616;52.170;5.386;2022-07-29T14:25:52;27.40;42.80
70801;DHT22;59616;52.170;5.386;2022-07-29T14:28:19;27.40;41.20
70801;DHT22;59616;52.170;5.386;2022-07-29T14:30:45;27.30;41.50
70801;DHT22;59616;52.170;5.386;2022-07-29T14:33:12;27.30;42.10
70801;DHT22;59616;52.170;5.386;2022-07-29T14:35:39;27.30;41.90
70801;DHT22;59616;52.170;5.386;2022-07-29T14:38:06;27.40;41.00
70801;DHT22;59616;52.170;5.386;2022-07-29T14:40:32;27.40;41.00
70801;DHT22;59616;52.170;5.386;2022-07-29T14:42:59;27.30;40.70
70801;DHT22;59616;52.170;5.386;2022-07-29T14:45:26;27.30;40.70
70801;DHT22;59616;52.170;5.386;2022-07-29T14:47:54;27.30;40.60
70801;DHT22;59616;52.170;5.386;2022-07-29T14:50:23;27.20;40.20
70801;DHT22;59616;52.170;5.386;2022-07-29T14:52:58;27.10;40.00
70801;DHT22;59616;52.170;5.386;2022-07-29T14:55:25;27.10;40.90
70801;DHT22;59616;52.170;5.386;2022-07-29T14:57:52;27.10;41.20
70801;DHT22;59616;52.170;5.386;2022-07-29T15:00:33;27.20;41.30
70801;DHT22;59616;52.170;5.386;2022-07-29T15:03:00;27.10;40.60
70801;DHT22;59616;52.170;5.386;2022-07-29T15:05:31;27.00;40.70
70801;DHT22;59616;52.170;5.386;2022-07-29T15:07:59;27.00;40.80
70801;DHT22;59616;52.170;5.386;2022-07-29T15:10:26;27.00;40.90
70801;DHT22;59616;52.170;5.386;2022-07-29T15:12:54;27.00;40.90
70801;DHT22;59616;52.170;5.386;2022-07-29T15:15:21;27.00;40.50
70801;DHT22;59616;52.170;5.386;2022-07-29T15:17:48;26.90;40.00
70801;DHT22;59616;52.170;5.386;2022-07-29T15:20:22;26.90;40.20
70801;DHT22;59616;52.170;5.386;2022-07-29T15:22:52;26.90;40.50
70801;DHT22;59616;52.170;5.386;2022-07-29T15:25:22;27.00;40.40
70801;DHT22;59616;52.170;5.386;2022-07-29T15:27:50;27.00;40.30
70801;DHT22;59616;52.170;5.386;2022-07-29T15:30:19;26.90;39.90
70801;DHT22;59616;52.170;5.386;2022-07-29T15:33:00;26.80;40.20
70801;DHT22;59616;52.170;5.386;2022-07-29T15:35:28;26.80;40.40
70801;DHT22;59616;52.170;5.386;2022-07-29T15:37:55;26.60;40.40
70801;DHT22;59616;52.170;5.386;2022-07-29T15:40:21;26.60;40.60
70801;DHT22;59616;52.170;5.386;2022-07-29T15:42:48;26.60;40.50
70801;DHT22;59616;52.170;5.386;2022-07-29T15:45:15;26.60;41.10
70801;DHT22;59616;52.170;5.386;2022-07-29T15:47:43;26.70;40.70
70801;DHT22;59616;52.170;5.386;2022-07-29T15:50:12;26.60;40.20
70801;DHT22;59616;52.170;5.386;2022-07-29T15:52:42;26.50;40.40
70801;DHT22;59616;52.170;5.386;2022-07-29T15:55:09;26.50;40.60
70801;DHT22;59616;52.170;5.386;2022-07-29T15:57:36;26.50;40.30
70801;DHT22;59616;52.170;5.386;2022-07-29T16:00:04;26.50;40.40
70801;DHT22;59616;52.170;5.386;2022-07-29T16:02:33;26.40;40.10
70801;DHT22;59616;52.170;5.386;2022-07-29T16:05:00;26.40;40.00
70801;DHT22;59616;52.170;5.386;2022-07-29T16:07:27;26.40;40.00
70801;DHT22;59616;52.170;5.386;2022-07-29T16:10:00;26.40;40.00
70801;DHT22;59616;52.170;5.386;2022-07-29T16:12:27;26.40;39.80
70801;DHT22;59616;52.170;5.386;2022-07-29T16:14:54;26.40;40.10
70801;DHT22;59616;52.170;5.386;2022-07-29T16:17:21;26.40;39.40
70801;DHT22;59616;52.170;5.386;2022-07-29T16:19:47;26.30;39.90
70801;DHT22;59616;52.170;5.386;2022-07-29T16:22:14;26.40;39.60
70801;DHT22;59616;52.170;5.386;2022-07-29T16:24:42;26.30;39.40
70801;DHT22;59616;52.170;5.386;2022-07-29T16:27:08;26.30;39.50